Airfield :
LOGIN :

Register | Disclaimer

   EN    FR    IT 

 










Legend :    VFR   Marginal VFR   IFR   Intensive IFR   Very Intensive IFR
Visi :
Ceiling :
>= 8 km
>= 3000ft
5 to 8 km
1000 to 3000 ft
1500m to 5 km
500 to 1000 ft
800 to 1500m
200 to 500 ft
< 800m
< 200 ft
Symbols :   Thunderstorms  Fog  Heavy snow  Heavy precipitations  Wind > 20 kt
SIGMETs :     Misc.  Thunderstorms  Icing  Turbulence  Mountain Waves  Volcanic Ashes







- Airport Elevation : 2096 ft
- IATA code : AUR
- Download approach charts


LFLW - Aurillac

CURRENT METAR :
  • 132030Z AUTO 33002KT 9999 BKN020 OVC028 05/03 Q1008

EXPIRED METARs :
  • 132000Z AUTO 00000KT 9999 -DZ SCT020 SCT029 BKN038 04/03 Q1008
  • 131930Z AUTO 00000KT 8000 -DZ FEW018 BKN027 BKN046 04/03 Q1008
  • 131900Z AUTO 16002KT 9999 -RA FEW044 OVC052 05/03 Q1007
  • 131830Z AUTO 18002KT 9999 -DZ FEW020 BKN043 OVC052 05/03 Q1007
  • 131800Z AUTO 00000KT 9999 BKN019 OVC054 05/03 Q1007

TAF TAF LFLW
Valid from the 13 at 15:00 until the 14 at 00:00 UTC


131400Z 1315/1324 10004KT 7000 -RA BKN020 OVC080
BECMG 1315/1317 BKN012 OVC035
TEMPO 1317/1324 3500 -RA BR BKN007 OVC030
PROB40
TEMPO 1322/1324 3000 -RASN BKN006 OVC012
No reported NOTAMs for that airfield.
1 SIGMET reported for the Bordeaux FIR (LFBB) :
 
Severe turbulence
LFBB SIGMET 6 VALID 132200/140200 LFPW
LFBB BORDEAUX FIR/UIR SEV TURB FCST WI N4245 W00045 - N4300 W00145 - N4430 W00145 - N4245 W00045 FL200/340 MOV E 15KT NC=



MET'MAP, your aeronautical weather chart ! - Copyright ORBIFLY December 2007 - Disclaimer

ORBIFLY MET'MAP TEAM :

Programming & Development : Alexandra Zaïnal
Concept & Development : Baudouin d'Aumeries
Co-Development & Prog : Marc-Olivier Méhu
Technical & hardware support : Manuel Goepfert

Contact : metmap@orbifly.com




SOURCES & CREDITS :

   NOAA